logo
Search for airport 
image banner adimage banner adimage banner ad
image banner ad

ED2026 - Arnstadt Kkrhs.

Located in Arnstadt, Germany

ICAO - , IATA -

Data provided by Airmate  

General information

Coordinates: N50°50'22" E10°56'27"
Elevation is 1007 feet MSL.
Magnetic variation is 4° East
View others Airports in Thuringia

Operational data

Special qualification required
Current time UTC:
Current local time:
Weather at : EDDE - Erfurt-Weimar ( 16 km )
METAR: EDDE 231650Z AUTO 28010KT 9999 SHRA SCT032 SCT041 FEW///TCU 18/17 Q1017 TEMPO NSW
TAF: TAF EDDE 231100Z 2312/2412 25010KT 9999 FEW040 TEMPO 2313/2323 27015KT SHRA BKN040CB PROB30 TEMPO 2313/2322 27015G30KT 2500 TSRA PROB30 TEMPO 2322/2406 BKN014
View NOTAMs / SUP AIP / TFR affecting this airport [VIEW]
Communications frequencies: [VIEW]

Runways:

Airport contact information

Address: Arnstadt Germany

Satellite view of ED2026